Time;durP1;ratioP1;P1;durP2;ratioP2;P2;SDS_P1;SDS_P2;PMS_P1;PMS_P2;Temp;Humidity;BMP_temperature;BMP_pressure;BME280_temperature;BME280_humidity;BME280_pressure;Samples;Min_cycle;Max_cycle;Signal;HPM_P1;HPM_P2
2021/09/29 00:01:17;;;;;;;;;;;;;;;8.42;82.68;97246.63;115604;1198;24023;-90
2021/09/29 00:03:48;;;;;;;14.00;10.50;;;;;;;8.46;82.65;97245.20;115587;1198;25882;-90
2021/09/29 00:06:19;;;;;;;12.70;9.40;;;;;;;8.45;82.56;97242.09;115611;1197;53195;-90
2021/09/29 00:08:50;;;;;;;14.80;10.50;;;;;;;8.44;82.22;97241.54;115604;1197;27600;-91
2021/09/29 00:11:27;;;;;;;15.90;10.80;;;;;;;8.35;82.15;97241.42;115637;1197;30355;-90
2021/09/29 00:13:57;;;;;;;16.30;11.50;;;;;;;8.20;82.34;97243.19;115500;1197;26403;-90
2021/09/29 00:16:28;;;;;;;16.90;12.00;;;;;;;8.07;82.79;97239.70;115499;1196;31997;-89
2021/09/29 00:18:59;;;;;;;16.90;12.00;;;;;;;7.97;83.23;97234.24;115468;1197;26660;-90
2021/09/29 00:21:30;;;;;;;17.30;11.00;;;;;;;7.91;83.44;97235.47;115479;1192;39999;-90
2021/09/29 00:24:00;;;;;;;16.60;10.70;;;;;;;7.96;83.67;97236.09;115457;1184;31984;-89
2021/09/29 00:26:31;;;;;;;16.60;11.30;;;;;;;8.06;83.92;97235.73;115568;1197;31285;-90
2021/09/29 00:29:02;;;;;;;13.70;10.20;;;;;;;8.16;83.83;97231.99;115506;1197;34669;-91
2021/09/29 00:31:36;;;;;;;15.50;10.20;;;;;;;8.21;83.64;97235.97;115495;1198;29279;-90
2021/09/29 00:34:09;;;;;;;14.70;9.90;;;;;;;8.12;83.07;97239.13;115586;1191;27713;-91
2021/09/29 00:36:43;;;;;;;14.00;9.50;;;;;;;7.97;82.56;97236.95;115593;1198;28717;-89
2021/09/29 00:39:15;;;;;;;13.40;9.50;;;;;;;7.76;82.88;97236.84;115627;1198;27065;-90
2021/09/29 00:41:46;;;;;;;16.10;11.80;;;;;;;7.63;83.71;97236.47;115420;1193;26398;-90
2021/09/29 00:44:17;;;;;;;14.30;10.60;;;;;;;7.57;84.31;97238.70;115601;1197;30975;-91
2021/09/29 00:46:48;;;;;;;15.60;11.40;;;;;;;7.58;84.69;97238.66;115626;1197;30266;-91
2021/09/29 00:49:19;;;;;;;18.30;11.90;;;;;;;7.60;84.90;97237.23;115833;1198;28683;-90
2021/09/29 00:51:50;;;;;;;16.70;10.90;;;;;;;7.69;85.11;97236.33;117468;1197;26920;-91
2021/09/29 00:54:23;;;;;;;16.40;10.30;;;;;;;7.80;84.86;97233.98;117113;1197;41056;-91
2021/09/29 00:56:54;;;;;;;15.20;10.30;;;;;;;7.87;84.94;97229.48;115466;1197;26883;-91
2021/09/29 00:59:25;;;;;;;16.60;10.40;;;;;;;7.98;85.00;97221.45;115499;1197;29668;-89
2021/09/29 01:01:57;;;;;;;12.60;9.40;;;;;;;8.08;84.66;97219.19;115420;1198;29389;-90
2021/09/29 01:04:29;;;;;;;13.60;9.50;;;;;;;8.04;83.98;97217.28;115462;1197;33538;-90
2021/09/29 01:07:09;;;;;;;13.10;8.70;;;;;;;7.83;83.33;97212.13;115510;1192;27413;-91
2021/09/29 01:09:45;;;;;;;14.40;9.20;;;;;;;7.80;83.42;97217.42;115514;1197;30104;-90
2021/09/29 01:12:24;;;;;;;13.80;9.90;;;;;;;7.66;83.27;97217.66;115426;1198;56327;-90
2021/09/29 01:15:03;;;;;;;13.40;8.90;;;;;;;7.42;83.64;97215.75;115539;1197;30827;-90
2021/09/29 01:17:35;;;;;;;12.00;8.80;;;;;;;7.24;83.94;97216.50;115599;1198;26499;-90
2021/09/29 01:20:09;;;;;;;14.40;9.10;;;;;;;7.21;84.83;97214.25;115540;1197;29982;-91
2021/09/29 01:22:55;;;;;;;15.00;9.10;;;;;;;7.32;85.73;97212.92;115471;1198;28947;-90
2021/09/29 01:25:40;;;;;;;12.60;8.40;;;;;;;7.46;85.62;97207.52;115504;1182;27919;-90
2021/09/29 01:28:11;;;;;;;11.90;8.50;;;;;;;7.42;84.98;97208.52;115478;1197;29165;-91
2021/09/29 01:30:42;;;;;;;14.20;8.70;;;;;;;7.44;84.95;97202.65;115544;1197;43553;-90
2021/09/29 01:33:15;;;;;;;14.60;9.60;;;;;;;7.39;84.74;97204.01;115547;1198;31424;-88
2021/09/29 01:35:47;;;;;;;14.00;9.30;;;;;;;7.32;84.54;97197.46;115576;1184;25684;-89
2021/09/29 01:38:18;;;;;;;12.60;9.30;;;;;;;7.38;84.65;97198.29;115582;1197;38482;-89
2021/09/29 01:40:49;;;;;;;12.60;8.40;;;;;;;7.44;84.46;97195.89;115528;1197;27782;-90
2021/09/29 01:43:20;;;;;;;11.60;7.60;;;;;;;7.41;84.25;97194.48;115587;1198;26663;-89
2021/09/29 01:45:51;;;;;;;12.30;7.70;;;;;;;7.32;84.23;97193.61;115553;1197;25234;-89
2021/09/29 01:48:22;;;;;;;11.20;7.90;;;;;;;7.20;84.47;97189.74;115507;1198;28694;-89
2021/09/29 01:50:58;;;;;;;11.30;7.60;;;;;;;7.11;84.49;97188.47;115430;1197;26293;-90
2021/09/29 01:53:33;;;;;;;10.30;7.70;;;;;;;7.05;84.81;97185.33;115427;1199;27732;-90
2021/09/29 01:56:04;;;;;;;10.80;7.00;;;;;;;7.13;85.19;97185.81;115398;1198;39796;-89
2021/09/29 01:58:35;;;;;;;10.80;7.50;;;;;;;7.26;85.42;97181.14;115501;1197;24849;-89
2021/09/29 02:01:06;;;;;;;11.80;7.50;;;;;;;7.24;84.65;97180.99;115450;1198;26494;-89
2021/09/29 02:03:38;;;;;;;11.70;7.80;;;;;;;7.05;84.34;97179.25;115503;1197;29922;-89
2021/09/29 02:06:09;;;;;;;11.00;7.50;;;;;;;7.04;84.52;97173.55;115507;1197;28139;-89
2021/09/29 02:08:40;;;;;;;12.30;7.50;;;;;;;7.04;84.24;97171.60;115429;1198;29117;-90
2021/09/29 02:11:11;;;;;;;11.00;8.20;;;;;;;7.05;84.36;97173.73;115529;1192;26996;-89
2021/09/29 02:13:41;;;;;;;12.70;7.50;;;;;;;7.13;84.55;97168.23;115458;1198;28430;-90
2021/09/29 02:16:12;;;;;;;13.80;7.90;;;;;;;7.22;84.85;97157.73;115621;1197;25706;-90
2021/09/29 02:18:43;;;;;;;11.00;7.50;;;;;;;7.31;84.93;97158.69;115603;1197;27887;-89
2021/09/29 02:21:13;;;;;;;;;;;;;;;7.32;84.46;97154.42;115648;1197;26489;-89
2021/09/29 02:23:43;;;;;;;11.20;7.20;;;;;;;7.10;84.10;97156.77;115576;1197;26781;-89
2021/09/29 02:26:14;;;;;;;11.10;7.40;;;;;;;7.00;83.93;97154.17;115574;1197;27880;-89
2021/09/29 02:28:45;;;;;;;13.50;7.60;;;;;;;6.85;83.76;97156.65;115505;1197;26355;-89
2021/09/29 02:31:16;;;;;;;10.40;7.00;;;;;;;6.80;83.95;97156.75;115525;1197;28392;-89
2021/09/29 02:33:47;;;;;;;12.30;7.60;;;;;;;6.78;84.05;97156.29;115496;1197;27486;-90
2021/09/29 02:36:18;;;;;;;14.50;8.60;;;;;;;6.66;84.41;97154.58;115539;1198;28237;-88
2021/09/29 02:38:51;;;;;;;12.20;8.30;;;;;;;6.60;84.77;97150.30;115654;1197;26719;-91
2021/09/29 02:41:24;;;;;;;12.00;8.10;;;;;;;6.66;85.35;97146.60;115612;1197;28356;-91
2021/09/29 02:43:54;;;;;;;11.80;8.00;;;;;;;6.76;85.36;97146.93;115459;1198;25553;-91
2021/09/29 02:46:26;;;;;;;10.60;6.90;;;;;;;6.63;84.53;97143.50;115559;1197;27828;-91
2021/09/29 02:48:57;;;;;;;10.90;6.80;;;;;;;6.60;84.48;97145.71;115507;1198;29740;-90
2021/09/29 02:51:27;;;;;;;11.70;7.30;;;;;;;6.55;84.10;97147.70;115457;1197;28442;-90
2021/09/29 02:53:58;;;;;;;11.90;7.50;;;;;;;6.52;84.03;97146.29;115482;1198;32182;-91
2021/09/29 02:56:30;;;;;;;11.50;7.30;;;;;;;6.51;84.25;97148.17;115574;1197;30505;-90
2021/09/29 02:59:01;;;;;;;10.30;7.40;;;;;;;6.49;84.52;97145.61;115676;1190;25674;-90
2021/09/29 03:01:32;;;;;;;10.60;7.60;;;;;;;6.37;84.60;97145.26;115538;1197;28862;-90
2021/09/29 03:04:02;;;;;;;11.70;7.40;;;;;;;6.34;85.35;97146.77;115466;1184;26899;-91
2021/09/29 03:06:33;;;;;;;11.20;7.90;;;;;;;6.44;85.58;97147.67;115471;1197;26843;-92
2021/09/29 03:09:05;;;;;;;11.60;7.20;;;;;;;6.45;85.30;97146.42;115449;1198;27319;-90
2021/09/29 03:11:36;;;;;;;13.00;7.70;;;;;;;6.51;84.95;97146.80;115582;1190;29719;-89
2021/09/29 03:14:07;;;;;;;12.10;8.90;;;;;;;6.36;84.67;97142.17;115314;1197;29882;-89
2021/09/29 03:16:37;;;;;;;12.00;8.10;;;;;;;6.24;85.44;97141.56;115493;1192;27835;-88
2021/09/29 03:19:09;;;;;;;13.00;8.00;;;;;;;6.29;85.83;97137.05;115541;1191;28319;-90
2021/09/29 03:21:40;;;;;;;12.60;8.00;;;;;;;6.38;85.50;97134.73;115497;1190;30579;-89
2021/09/29 03:24:11;;;;;;;14.50;8.00;;;;;;;6.34;85.17;97134.82;115464;1184;26122;-90
2021/09/29 03:26:42;;;;;;;13.50;8.80;;;;;;;6.37;85.31;97133.66;115478;1197;28587;-90
2021/09/29 03:29:13;;;;;;;13.20;7.70;;;;;;;6.46;85.42;97131.86;115452;1191;27627;-91
2021/09/29 03:31:44;;;;;;;11.30;8.10;;;;;;;6.49;85.10;97130.17;115453;1198;25665;-89
2021/09/29 03:34:14;;;;;;;11.80;7.70;;;;;;;6.48;85.05;97133.13;115509;1198;26905;-90
2021/09/29 03:36:45;;;;;;;11.80;7.40;;;;;;;6.47;84.78;97135.58;115522;1197;26583;-89
2021/09/29 03:39:14;;;;;;;;;;;;;;;6.34;84.71;97140.61;115569;1198;25757;-90
2021/09/29 03:41:45;;;;;;;10.90;7.40;;;;;;;6.24;84.97;97141.55;115471;1198;27745;-89
2021/09/29 03:44:16;;;;;;;13.90;8.10;;;;;;;6.19;85.30;97141.92;115490;1198;26710;-89
2021/09/29 03:46:46;;;;;;;14.90;9.00;;;;;;;6.27;85.69;97135.91;115509;1197;26231;-89
2021/09/29 03:49:17;;;;;;;13.70;9.10;;;;;;;6.43;86.13;97135.07;115522;1197;26409;-90
2021/09/29 03:51:48;;;;;;;13.40;9.30;;;;;;;6.61;86.46;97136.16;115546;1198;27664;-90
2021/09/29 03:54:19;;;;;;;13.60;8.20;;;;;;;6.75;86.22;97132.69;115601;1191;24662;-90
2021/09/29 03:56:48;;;;;;;;;;;;;;;6.83;86.02;97121.79;115549;1197;30655;-90
2021/09/29 03:59:19;;;;;;;11.50;7.40;;;;;;;6.78;85.67;97121.88;115546;1192;28972;-89
2021/09/29 04:01:50;;;;;;;10.50;7.90;;;;;;;6.77;85.48;97122.08;115552;1197;29346;-90
2021/09/29 04:04:20;;;;;;;13.00;8.50;;;;;;;6.66;85.13;97118.11;115606;1198;25709;-90
2021/09/29 04:06:51;;;;;;;13.30;9.00;;;;;;;6.54;85.53;97121.35;115666;1197;31482;-89
2021/09/29 04:09:22;;;;;;;15.50;10.00;;;;;;;6.48;85.83;97115.83;115607;1197;27694;-89
2021/09/29 04:11:53;;;;;;;15.30;11.30;;;;;;;6.48;86.63;97112.09;115642;1197;25549;-89
2021/09/29 04:14:23;;;;;;;15.70;10.90;;;;;;;6.56;87.06;97106.88;115615;1198;40440;-89
2021/09/29 04:16:54;;;;;;;13.20;8.50;;;;;;;6.62;87.15;97106.60;115585;1197;25158;-89
2021/09/29 04:19:25;;;;;;;14.20;8.80;;;;;;;6.54;86.36;97103.55;115530;1197;30399;-89
2021/09/29 04:21:56;;;;;;;12.70;9.10;;;;;;;6.48;86.42;97103.17;115544;1198;28255;-89
2021/09/29 04:24:27;;;;;;;12.50;9.00;;;;;;;6.47;86.44;97101.65;115476;1195;28328;-88
2021/09/29 04:26:57;;;;;;;13.20;9.10;;;;;;;6.46;86.36;97103.08;115371;1199;31248;-89
2021/09/29 04:29:28;;;;;;;13.10;9.30;;;;;;;6.44;86.48;97098.42;115505;1198;27279;-89
2021/09/29 04:31:59;;;;;;;12.40;9.70;;;;;;;6.40;87.02;97095.15;115555;1192;35647;-89
2021/09/29 04:34:30;;;;;;;13.50;9.40;;;;;;;6.36;87.44;97093.42;115587;1191;31452;-90
2021/09/29 04:37:01;;;;;;;13.70;9.70;;;;;;;6.32;87.68;97093.50;115569;1198;26361;-89
2021/09/29 04:39:32;;;;;;;16.20;10.70;;;;;;;6.28;87.48;97093.48;115591;1197;25573;-88
2021/09/29 04:42:03;;;;;;;13.50;10.50;;;;;;;6.21;87.45;97088.11;115491;1198;27206;-89
2021/09/29 04:44:34;;;;;;;12.80;9.80;;;;;;;6.21;87.92;97088.27;115378;1192;26902;-89
2021/09/29 04:47:05;;;;;;;16.00;10.90;;;;;;;6.21;88.27;97085.91;115500;1198;28356;-88
2021/09/29 04:49:36;;;;;;;16.60;11.20;;;;;;;6.23;88.24;97090.46;115513;1197;31175;-88
2021/09/29 04:52:09;;;;;;;15.80;11.60;;;;;;;6.27;88.38;97092.05;115538;1192;39038;-89
2021/09/29 04:54:41;;;;;;;15.50;10.70;;;;;;;6.29;88.56;97094.71;115530;1198;27691;-89
2021/09/29 04:57:12;;;;;;;16.50;11.30;;;;;;;6.27;88.44;97094.79;115505;1197;25757;-90
2021/09/29 04:59:43;;;;;;;16.00;11.80;;;;;;;6.24;88.31;97097.22;115512;1197;25011;-88
2021/09/29 05:02:15;;;;;;;17.30;12.10;;;;;;;6.24;88.60;97095.27;115485;1198;34841;-89
2021/09/29 05:04:46;;;;;;;19.00;12.70;;;;;;;6.25;88.67;97094.55;115445;1198;26079;-88
2021/09/29 05:07:21;;;;;;;16.70;10.80;;;;;;;6.30;88.89;97093.35;115452;1197;32619;-89
2021/09/29 05:09:52;;;;;;;16.90;11.90;;;;;;;6.37;89.07;97095.22;115522;1198;27142;-89
2021/09/29 05:12:31;;;;;;;16.40;11.70;;;;;;;6.43;89.10;97091.57;115558;1198;25609;-89
2021/09/29 05:15:02;;;;;;;19.20;12.50;;;;;;;6.46;89.22;97091.24;115528;1198;27806;-89
2021/09/29 05:17:33;;;;;;;15.00;11.40;;;;;;;6.48;89.29;97091.14;115549;1191;27217;-90
2021/09/29 05:20:05;;;;;;;17.70;12.50;;;;;;;6.53;89.32;97091.78;115526;1191;27874;-90
2021/09/29 05:22:36;;;;;;;18.30;12.90;;;;;;;6.68;89.38;97090.05;115443;1198;37481;-90
2021/09/29 05:25:08;;;;;;;15.90;12.20;;;;;;;6.84;89.22;97090.16;115477;1197;29001;-89
2021/09/29 05:27:39;;;;;;;16.00;12.00;;;;;;;6.98;89.12;97089.11;115447;1199;27986;-89
2021/09/29 05:30:12;;;;;;;14.70;10.80;;;;;;;7.20;89.12;97089.61;115595;1197;29806;-91
2021/09/29 05:32:43;;;;;;;15.80;11.00;;;;;;;7.45;88.99;97091.77;116474;1197;27276;-91
2021/09/29 05:35:14;;;;;;;17.00;11.20;;;;;;;7.67;88.74;97091.85;117190;1198;26428;-90
2021/09/29 05:37:44;;;;;;;17.50;11.70;;;;;;;7.89;88.44;97091.29;116077;1184;28046;-90
2021/09/29 05:40:16;;;;;;;17.00;11.80;;;;;;;8.45;88.09;97087.95;115452;1197;29197;-90
2021/09/29 05:42:47;;;;;;;15.10;11.70;;;;;;;9.31;87.76;97089.98;115576;1197;32059;-90
2021/09/29 05:45:17;;;;;;;15.90;10.60;;;;;;;10.56;87.59;97091.00;115452;1197;30350;-90
2021/09/29 05:47:48;;;;;;;13.90;10.50;;;;;;;11.64;84.52;97085.61;115451;1198;34851;-89
2021/09/29 05:50:19;;;;;;;13.90;10.80;;;;;;;12.17;81.63;97087.68;115525;1197;29262;-91
2021/09/29 05:52:50;;;;;;;14.00;10.50;;;;;;;12.23;79.39;97087.95;115675;1197;28343;-90
2021/09/29 05:55:21;;;;;;;13.30;9.70;;;;;;;11.67;78.13;97086.77;115643;1197;29883;-90
2021/09/29 05:57:52;;;;;;;13.10;10.40;;;;;;;11.13;78.28;97085.48;115617;1197;30547;-89
2021/09/29 06:00:23;;;;;;;13.30;9.40;;;;;;;10.91;79.60;97087.76;115674;1190;25107;-90
2021/09/29 06:02:54;;;;;;;12.70;9.60;;;;;;;11.50;80.12;97082.41;115590;1197;34265;-88
2021/09/29 06:05:25;;;;;;;13.80;10.00;;;;;;;12.08;79.62;97081.25;115429;1198;25718;-90
2021/09/29 06:07:55;;;;;;;14.10;10.10;;;;;;;12.29;78.68;97075.80;115596;1197;26492;-90
2021/09/29 06:10:27;;;;;;;14.20;10.00;;;;;;;12.51;78.04;97076.85;115572;1197;29082;-90
2021/09/29 06:12:58;;;;;;;12.50;9.30;;;;;;;12.86;78.38;97077.70;115411;1198;28006;-90
2021/09/29 06:15:30;;;;;;;12.40;9.00;;;;;;;13.50;77.84;97076.71;115427;1198;28166;-90
2021/09/29 06:18:03;;;;;;;13.30;9.50;;;;;;;14.05;76.65;97076.11;115441;1197;33765;-90
2021/09/29 06:20:36;;;;;;;12.00;8.40;;;;;;;14.81;75.38;97072.99;115469;1197;29261;-91
2021/09/29 06:23:07;;;;;;;11.70;8.70;;;;;;;15.67;74.05;97069.56;115419;1198;29326;-90
2021/09/29 06:25:37;;;;;;;11.10;7.80;;;;;;;16.63;73.65;97068.58;115417;1198;27887;-90
2021/09/29 06:28:09;;;;;;;10.60;8.20;;;;;;;17.40;70.91;97067.08;115406;1193;28284;-91
2021/09/29 06:30:40;;;;;;;10.50;7.90;;;;;;;18.19;69.96;97071.44;115408;1194;26522;-92
2021/09/29 06:33:13;;;;;;;10.00;7.70;;;;;;;18.96;68.57;97073.35;115428;1198;26756;-92
2021/09/29 06:35:44;;;;;;;9.10;7.50;;;;;;;19.86;66.76;97070.88;115464;1197;27137;-91
2021/09/29 06:38:14;;;;;;;8.90;7.40;;;;;;;20.36;64.97;97070.97;115456;1191;28399;-91
2021/09/29 06:40:45;;;;;;;10.50;7.10;;;;;;;20.63;63.76;97070.20;115433;1197;26870;-90
2021/09/29 06:43:16;;;;;;;10.90;7.60;;;;;;;21.12;60.86;97070.63;115438;1197;41892;-91
2021/09/29 06:45:47;;;;;;;9.60;6.60;;;;;;;21.26;60.52;97075.33;115425;1197;26844;-90
2021/09/29 06:48:18;;;;;;;9.10;6.80;;;;;;;21.56;58.91;97072.63;115453;1198;27479;-91
2021/09/29 06:50:49;;;;;;;8.50;6.00;;;;;;;21.83;58.13;97075.66;115579;1192;26208;-91
2021/09/29 06:53:22;;;;;;;7.70;6.20;;;;;;;21.97;56.12;97077.16;115374;1190;31903;-91
2021/09/29 06:55:53;;;;;;;8.80;6.10;;;;;;;21.97;56.09;97074.94;115477;1197;25600;-92
2021/09/29 06:58:26;;;;;;;7.60;6.00;;;;;;;21.83;55.52;97074.35;115506;1197;27478;-90
2021/09/29 07:00:57;;;;;;;7.20;6.00;;;;;;;22.08;55.37;97078.20;115479;1197;25810;-91
2021/09/29 07:03:28;;;;;;;6.40;5.50;;;;;;;22.44;55.04;97078.56;115409;1198;28407;-90
2021/09/29 07:05:59;;;;;;;7.40;5.40;;;;;;;23.06;54.18;97081.39;115454;1197;26004;-89
2021/09/29 07:08:30;;;;;;;8.00;6.00;;;;;;;23.66;53.63;97083.20;115488;1192;27294;-90
2021/09/29 07:11:03;;;;;;;8.60;6.30;;;;;;;24.50;53.33;97083.71;115384;1198;31647;-90
2021/09/29 07:13:34;;;;;;;7.10;5.70;;;;;;;24.86;50.96;97084.19;115407;1197;35889;-89
2021/09/29 07:16:06;;;;;;;8.20;5.70;;;;;;;24.95;50.05;97079.70;115438;1197;30520;-91
2021/09/29 07:18:38;;;;;;;7.00;5.80;;;;;;;25.11;49.56;97083.52;115440;1194;25898;-90
2021/09/29 07:21:10;;;;;;;7.60;5.50;;;;;;;25.34;49.66;97085.29;115500;1197;26235;-91
2021/09/29 07:23:40;;;;;;;7.50;5.90;;;;;;;25.67;49.09;97089.55;115458;1197;28039;-91
2021/09/29 07:26:11;;;;;;;6.10;5.30;;;;;;;25.48;47.97;97090.02;115440;1197;28550;-91
2021/09/29 07:28:43;;;;;;;6.90;5.60;;;;;;;24.62;47.26;97092.71;115456;1198;28079;-91
2021/09/29 07:31:14;;;;;;;7.10;5.70;;;;;;;23.07;46.47;97095.23;115491;1197;27653;-90
2021/09/29 07:33:46;;;;;;;8.60;6.40;;;;;;;22.39;47.85;97090.14;115478;1197;31027;-90
2021/09/29 07:36:17;;;;;;;8.40;6.50;;;;;;;22.37;48.41;97094.66;115502;1198;24912;-90
2021/09/29 07:38:48;;;;;;;10.30;7.30;;;;;;;22.50;48.98;97093.62;115497;1197;26141;-91
2021/09/29 07:41:19;;;;;;;10.90;6.70;;;;;;;23.03;49.46;97091.21;115437;1191;25998;-89
2021/09/29 07:43:50;;;;;;;9.10;6.60;;;;;;;23.45;49.49;97091.90;115560;1198;30501;-91
2021/09/29 07:46:21;;;;;;;8.70;6.30;;;;;;;23.64;48.79;97084.70;115652;1197;26747;-90
2021/09/29 07:48:52;;;;;;;9.00;7.00;;;;;;;22.76;46.95;97090.29;115508;1198;26644;-91
2021/09/29 07:51:23;;;;;;;9.40;6.10;;;;;;;21.84;48.53;97087.51;115507;1198;27415;-92
2021/09/29 07:53:54;;;;;;;9.90;6.00;;;;;;;21.81;49.03;97089.25;115405;1197;33664;-90
2021/09/29 07:56:25;;;;;;;8.00;5.90;;;;;;;21.22;49.02;97093.38;115434;1197;34130;-91
2021/09/29 07:58:56;;;;;;;10.50;6.20;;;;;;;20.51;48.84;97092.80;115456;1197;27262;-91
2021/09/29 08:01:27;;;;;;;10.30;6.80;;;;;;;19.15;49.41;97095.29;115517;1198;30080;-90
2021/09/29 08:03:59;;;;;;;9.90;7.30;;;;;;;18.41;51.41;97095.60;115525;1191;26506;-90
2021/09/29 08:06:29;;;;;;;8.80;6.50;;;;;;;18.26;52.59;97092.15;115445;1197;27876;-89
2021/09/29 08:09:01;;;;;;;8.50;6.40;;;;;;;17.93;52.74;97091.65;115427;1198;27264;-90
2021/09/29 08:11:32;;;;;;;10.20;6.80;;;;;;;17.48;53.83;97093.31;115427;1192;25749;-90
2021/09/29 08:14:04;;;;;;;11.10;8.00;;;;;;;17.22;54.27;97094.16;115472;1197;25009;-90
2021/09/29 08:16:34;;;;;;;9.40;6.80;;;;;;;16.98;55.48;97094.35;115441;1198;25057;-90
2021/09/29 08:19:06;;;;;;;10.20;7.30;;;;;;;17.08;55.98;97095.30;115501;1198;26052;-91
2021/09/29 08:21:36;;;;;;;12.30;7.50;;;;;;;17.31;57.15;97093.53;115477;1197;25057;-91
2021/09/29 08:24:10;;;;;;;9.50;7.60;;;;;;;17.50;56.54;97091.01;115527;1197;27862;-89
2021/09/29 08:32:26;;;;;;;11.20;8.20;;;;;;;16.35;57.05;97096.59;115541;1192;25998;-91
2021/09/29 08:35:05;;;;;;;12.20;9.00;;;;;;;15.90;58.24;97093.68;115483;1198;35782;-90
2021/09/29 08:37:41;;;;;;;11.90;8.80;;;;;;;15.67;59.41;97101.88;115407;1198;25573;-90
2021/09/29 08:40:23;;;;;;;12.50;9.30;;;;;;;15.38;59.89;97107.69;115492;1197;25605;-90
2021/09/29 08:43:07;;;;;;;13.20;8.80;;;;;;;15.01;60.89;97107.63;115529;1197;30049;-89
2021/09/29 08:45:41;;;;;;;13.70;9.60;;;;;;;14.80;62.11;97111.67;115469;1192;27575;-91
2021/09/29 08:48:23;;;;;;;14.30;10.00;;;;;;;14.80;63.36;97114.83;115494;1197;31537;-90
2021/09/29 08:53:55;;;;;;;14.40;10.50;;;;;;;14.65;63.81;97115.13;115393;1197;29780;-90
2021/09/29 09:16:34;;;;;;;15.20;11.00;;;;;;;15.58;67.29;97098.98;115388;1199;31314;-89
2021/09/29 09:19:08;;;;;;;16.00;11.80;;;;;;;15.79;67.23;97097.03;115469;1198;25030;-89
2021/09/29 09:21:43;;;;;;;16.10;11.50;;;;;;;15.80;67.14;97096.03;115472;1199;32657;-89
2021/09/29 09:24:19;;;;;;;20.10;12.40;;;;;;;15.78;66.50;97095.98;115366;1194;24855;-91
2021/09/29 09:27:01;;;;;;;16.30;12.50;;;;;;;15.51;66.53;97095.58;115372;1198;31719;-90
2021/09/29 09:29:43;;;;;;;20.00;13.50;;;;;;;15.48;67.50;97098.31;115446;1199;26794;-92
2021/09/29 09:32:18;;;;;;;16.90;12.20;;;;;;;15.65;68.39;97091.80;115545;1198;24472;-90
2021/09/29 09:34:59;;;;;;;17.10;12.90;;;;;;;15.98;68.61;97088.63;115454;1198;25654;-89
2021/09/29 09:37:33;;;;;;;16.70;12.20;;;;;;;16.23;68.03;97089.91;115438;1198;27822;-90
2021/09/29 09:40:11;;;;;;;16.20;11.90;;;;;;;16.31;67.64;97085.89;115423;1198;34504;-92
2021/09/29 09:42:44;;;;;;;15.80;12.70;;;;;;;16.31;66.75;97088.77;115393;1198;32830;-91
2021/09/29 09:45:18;;;;;;;16.80;13.20;;;;;;;16.24;67.51;97089.77;115422;1194;28087;-89
2021/09/29 09:47:49;;;;;;;18.50;14.20;;;;;;;16.34;67.00;97092.87;115516;1198;27917;-91
2021/09/29 09:50:30;;;;;;;23.00;13.20;;;;;;;16.20;67.55;97088.95;115449;1198;32484;-91
2021/09/29 09:53:11;;;;;;;19.40;14.30;;;;;;;16.25;67.39;97090.41;115479;1198;28348;-91
2021/09/29 09:55:43;;;;;;;16.90;11.70;;;;;;;16.24;68.21;97087.65;115479;1195;28690;-88
2021/09/29 09:58:14;;;;;;;16.70;14.20;;;;;;;16.49;67.99;97086.62;115520;1198;30916;-91
2021/09/29 10:00:45;;;;;;;17.70;13.80;;;;;;;16.48;67.80;97082.69;115408;1198;34710;-90
2021/09/29 10:03:26;;;;;;;15.60;12.40;;;;;;;16.58;68.15;97085.17;115423;1199;26529;-90
2021/09/29 10:05:59;;;;;;;19.30;13.00;;;;;;;16.68;68.00;97086.20;115485;1199;23752;-90
2021/09/29 10:08:31;;;;;;;17.70;13.10;;;;;;;16.60;67.81;97084.50;115516;1195;28490;-90
2021/09/29 10:11:06;;;;;;;18.30;13.50;;;;;;;16.42;67.42;97083.20;115536;1198;23994;-90
2021/09/29 10:13:55;;;;;;;17.20;13.30;;;;;;;16.30;68.00;97080.48;115503;1199;27373;-90
2021/09/29 10:27:57;;;;;;;19.80;13.80;;;;;;;15.74;69.17;97080.66;115393;1193;31050;-91
2021/09/29 10:30:33;;;;;;;16.50;13.10;;;;;;;15.70;69.94;97079.67;115974;1193;25933;-91
2021/09/29 10:33:07;;;;;;;18.60;13.40;;;;;;;15.85;70.62;97075.08;116973;1198;24512;-89
2021/09/29 10:35:58;;;;;;;18.80;13.40;;;;;;;16.06;70.70;97077.52;117069;1198;24773;-88
2021/09/29 10:41:38;;;;;;;19.80;13.50;;;;;;;16.50;70.26;97079.33;117022;1195;24367;-89
2021/09/29 10:44:22;;;;;;;21.50;13.90;;;;;;;16.61;71.00;97078.86;117011;1199;26895;-89
2021/09/29 10:47:01;;;;;;;21.30;13.20;;;;;;;16.83;71.18;97075.66;116070;1199;30904;-90
2021/09/29 10:52:34;;;;;;;21.80;15.30;;;;;;;16.51;69.72;97074.96;115296;1198;33128;-91
2021/09/29 11:07:12;;;;;;;19.40;13.70;;;;;;;16.92;71.18;97064.40;115427;1198;33841;-89
2021/09/29 11:29:50;;;;;;;;;;;;;;;17.36;70.38;97061.87;115476;1198;29017;-90
2021/09/29 11:32:31;;;;;;;18.00;14.90;;;;;;;17.27;70.16;97062.27;115631;1198;31797;-90
2021/09/29 11:35:15;;;;;;;19.40;14.40;;;;;;;17.06;70.45;97061.78;115477;1194;29771;-90
2021/09/29 11:38:05;;;;;;;19.00;14.70;;;;;;;16.92;70.50;97060.86;115451;1198;34408;-90
2021/09/29 12:09:11;;;;;;;18.40;14.10;;;;;;;17.62;72.21;97036.20;115510;1197;34579;-91
2021/09/29 12:11:49;;;;;;;21.60;14.90;;;;;;;17.75;72.24;97035.41;115597;1190;28922;-90
2021/09/29 12:14:24;;;;;;;18.20;14.20;;;;;;;17.86;72.31;97033.16;115720;1190;27972;-90
2021/09/29 12:16:55;;;;;;;21.20;14.90;;;;;;;17.93;72.07;97034.83;115486;1198;25965;-90
2021/09/29 12:19:31;;;;;;;18.80;13.90;;;;;;;17.95;72.00;97030.84;115361;1197;31545;-90
2021/09/29 12:22:06;;;;;;;19.30;13.60;;;;;;;17.97;71.97;97031.76;115545;1198;26804;-90
2021/09/29 12:24:43;;;;;;;20.60;14.70;;;;;;;17.98;71.62;97033.90;115429;1198;29634;-90
2021/09/29 12:27:34;;;;;;;18.00;13.70;;;;;;;17.97;72.06;97028.94;115463;1192;26215;-90
2021/09/29 12:30:18;;;;;;;17.30;13.60;;;;;;;17.98;71.86;97029.02;115513;1198;25834;-91
2021/09/29 12:35:52;;;;;;;17.60;13.80;;;;;;;18.01;71.90;97035.11;115513;1198;29053;-90
2021/09/29 12:38:35;;;;;;;20.30;14.80;;;;;;;17.91;71.73;97033.23;115561;1192;27328;-91
2021/09/29 12:41:07;;;;;;;17.90;13.30;;;;;;;17.81;71.91;97028.44;115434;1197;32341;-91
2021/09/29 12:43:38;;;;;;;18.40;13.10;;;;;;;17.78;72.17;97028.69;115428;1197;37748;-91
2021/09/29 12:46:14;;;;;;;18.90;13.70;;;;;;;17.78;72.56;97027.39;115418;1196;28038;-90
2021/09/29 12:48:46;;;;;;;18.00;13.20;;;;;;;17.74;72.90;97026.65;115495;1198;26807;-90
2021/09/29 12:51:20;;;;;;;17.60;12.60;;;;;;;17.72;72.88;97029.02;115521;1194;27114;-90
2021/09/29 12:53:54;;;;;;;20.50;13.60;;;;;;;17.71;72.88;97030.21;115531;1198;26026;-91
2021/09/29 12:56:25;;;;;;;17.90;13.80;;;;;;;17.60;72.13;97027.84;115458;1198;28837;-90
2021/09/29 12:58:57;;;;;;;18.60;13.30;;;;;;;17.51;72.88;97027.67;115543;1198;27992;-91
2021/09/29 13:01:27;;;;;;;19.90;14.10;;;;;;;17.55;73.20;97026.48;115525;1198;28939;-91
2021/09/29 13:03:58;;;;;;;20.30;14.70;;;;;;;17.51;73.17;97025.41;115525;1197;26991;-90
2021/09/29 13:06:29;;;;;;;18.50;12.90;;;;;;;17.49;73.45;97026.98;115410;1198;31996;-90
2021/09/29 13:09:00;;;;;;;18.50;13.30;;;;;;;17.57;73.98;97026.16;115534;1198;29145;-91
2021/09/29 13:11:31;;;;;;;18.00;13.70;;;;;;;17.67;74.14;97021.96;115501;1194;31057;-91
2021/09/29 13:14:02;;;;;;;16.90;12.80;;;;;;;17.73;74.22;97017.76;115452;1198;27946;-90
2021/09/29 13:16:33;;;;;;;17.40;13.70;;;;;;;17.78;74.29;97016.83;115491;1198;25377;-90
2021/09/29 13:19:10;;;;;;;18.00;13.40;;;;;;;17.76;74.23;97018.81;115525;1191;27953;-91
2021/09/29 13:21:43;;;;;;;19.10;12.80;;;;;;;17.73;74.11;97020.50;115399;1198;30566;-91
2021/09/29 13:24:17;;;;;;;17.00;12.70;;;;;;;17.69;74.14;97021.58;115527;1197;28154;-90
2021/09/29 13:27:03;;;;;;;17.80;12.50;;;;;;;17.62;74.08;97019.05;115575;1198;28004;-91
2021/09/29 13:35:27;;;;;;;17.90;12.50;;;;;;;17.42;74.89;97018.05;115583;1197;26405;-89
2021/09/29 13:37:59;;;;;;;15.60;12.20;;;;;;;17.36;75.00;97019.59;115516;1197;39205;-90
2021/09/29 13:40:30;;;;;;;17.10;12.20;;;;;;;17.32;75.34;97021.58;115517;1193;26562;-91